HHG weather

Huntington Municipal Airport
Huntington, Indiana, United States

Public forecast

Using degrees Fahrenheit for public forecast. Weather courtesy of forecast.io.

Current aviation weather report (METAR) for Huntington Municipal Airport

Retrieved 2020/05/28 21:55 UTC (22 minutes ago):

KHHG 282155Z AUTO 24007G20KT 7SM +RA SCT034 SCT047 OVC060 A2988 RMK AO2 P0003

Closest aviation forecast (TAF) to Huntington Municipal Airport

Closest forecast is Fort Wayne International Airport, 14.1 nm (26.1 km) ENE. Retrieved 2020/05/28 18:36 UTC (4 hours ago):

TAF KFWA 281733Z 2818/2918 15009KT P6SM VCSH BKN015 BKN050 FM282000 22012KT P6SM BKN050 FM290700 23006KT P6SM BKN025 FM291500 28010KT P6SM VCSH BKN012